createdAt,value
2023-05-19T07:50:45.243Z,51.10
2023-05-19T07:53:13.907Z,50.80
2023-05-19T08:36:38.258Z,44.60
2023-05-19T08:39:05.837Z,43.90
2023-05-19T08:41:33.587Z,42.20
2023-05-19T08:44:01.031Z,42.30
2023-05-19T08:46:29.538Z,41.80
2023-05-19T08:49:04.683Z,41.60
2023-05-19T08:51:32.108Z,40.90
2023-05-19T08:54:13.862Z,38.80
2023-05-19T08:56:45.680Z,38.80
2023-05-19T08:59:17.282Z,37.40
2023-05-19T09:01:46.325Z,36.50
2023-05-19T09:04:14.376Z,37.10
2023-05-19T09:06:42.285Z,36.30
2023-05-19T09:09:10.262Z,36.30
2023-05-19T09:11:38.008Z,34.60
2023-05-19T09:14:05.756Z,35.70
2023-05-19T09:16:34.081Z,35.00
2023-05-19T09:19:02.030Z,35.80
2023-05-19T09:21:33.356Z,34.30
2023-05-19T09:24:09.806Z,33.70
2023-05-19T09:26:41.778Z,34.40
2023-05-19T09:29:16.516Z,34.10
2023-05-19T09:31:55.891Z,34.20
2023-05-19T09:34:25.293Z,34.00
2023-05-19T09:36:54.105Z,34.40
2023-05-19T09:39:23.326Z,33.30
2023-05-19T09:41:53.602Z,32.80
2023-05-19T09:44:21.463Z,32.70
2023-05-19T09:47:17.336Z,32.80
2023-05-19T09:49:47.993Z,33.80
2023-05-19T09:52:16.505Z,33.80
2023-05-19T09:54:45.578Z,33.30
2023-05-19T09:57:13.655Z,34.30
2023-05-19T09:59:42.461Z,35.80
2023-05-19T10:02:17.764Z,34.60
2023-05-19T10:04:51.921Z,35.90
2023-05-19T10:07:26.937Z,36.90
2023-05-19T10:09:56.675Z,35.80
2023-05-19T10:12:28.112Z,37.10
2023-05-19T10:15:00.451Z,36.80
2023-05-19T10:17:29.782Z,37.30
2023-05-19T10:20:13.334Z,37.90
2023-05-19T10:22:42.373Z,37.50
2023-05-19T10:25:11.200Z,37.20
2023-05-19T10:27:55.060Z,37.50
2023-05-19T10:30:36.610Z,37.60
2023-05-19T10:33:07.946Z,38.10
2023-05-19T10:35:53.822Z,37.60
2023-05-19T10:38:24.901Z,37.20
2023-05-19T10:41:38.255Z,38.80
2023-05-19T10:44:20.194Z,38.30
2023-05-19T10:46:47.618Z,37.80
2023-05-19T10:49:22.660Z,38.80
2023-05-19T10:51:52.242Z,38.20
2023-05-19T10:54:43.613Z,38.30
2023-05-19T10:57:17.585Z,37.90
2023-05-19T10:59:45.285Z,38.20
2023-05-19T11:02:45.006Z,37.80
2023-05-19T11:05:16.533Z,39.30
2023-05-19T11:08:02.313Z,40.20
2023-05-19T11:10:30.086Z,38.90
2023-05-19T11:12:58.489Z,38.10
2023-05-19T11:15:27.676Z,39.40
2023-05-19T11:17:55.518Z,39.60
2023-05-19T11:20:27.725Z,39.80
2023-05-19T11:23:15.106Z,40.00
2023-05-19T11:25:47.847Z,39.40
2023-05-19T11:28:20.630Z,39.30
2023-05-19T11:30:52.643Z,39.90
2023-05-19T11:33:21.552Z,41.50
2023-05-19T11:35:51.045Z,40.30
2023-05-19T11:38:19.717Z,39.90
2023-05-19T11:40:49.665Z,39.70
2023-05-19T11:43:17.206Z,40.80
2023-05-19T11:45:45.262Z,41.20
2023-05-19T11:48:19.641Z,40.90
2023-05-19T11:50:47.542Z,40.60
2023-05-19T11:53:16.722Z,41.50
2023-05-19T11:55:48.441Z,42.60
2023-05-19T11:58:16.715Z,41.60
2023-05-19T12:00:47.401Z,42.80
2023-05-19T12:03:21.864Z,41.90
2023-05-19T12:05:50.017Z,43.20
2023-05-19T12:08:21.665Z,42.60
2023-05-19T12:10:50.887Z,42.50
2023-05-19T12:13:19.637Z,42.80
2023-05-19T12:15:50.677Z,42.50
2023-05-19T12:18:19.227Z,42.90
2023-05-19T12:20:46.737Z,43.10
2023-05-19T12:23:14.352Z,43.50
2023-05-19T12:25:42.012Z,42.90
2023-05-19T12:28:09.826Z,43.10
2023-05-19T12:30:37.783Z,42.40
2023-05-19T12:33:05.823Z,42.60
2023-05-19T12:35:34.065Z,42.70
2023-05-19T12:38:07.345Z,43.20
2023-05-19T12:40:51.780Z,43.20
2023-05-19T12:43:33.538Z,42.90
2023-05-19T12:46:12.951Z,43.80
2023-05-19T12:48:44.587Z,44.50
2023-05-19T12:51:30.990Z,44.10
2023-05-19T12:54:14.261Z,43.90
2023-05-19T13:00:31.052Z,43.00
2023-05-19T13:03:06.630Z,43.20
2023-05-19T13:05:38.976Z,43.40
2023-05-19T13:08:08.734Z,43.50
2023-05-19T13:10:38.230Z,43.70
2023-05-19T13:13:07.624Z,43.60
2023-05-19T13:15:38.048Z,43.40
2023-05-19T13:18:08.507Z,43.10
2023-05-19T13:20:37.682Z,43.00
2023-05-19T13:23:05.806Z,43.70
2023-05-19T13:25:34.691Z,43.10
2023-05-19T13:28:05.528Z,43.80
2023-05-19T13:30:34.504Z,43.50
2023-05-19T13:33:03.051Z,43.90
2023-05-19T13:35:36.626Z,43.70
2023-05-19T13:38:05.530Z,43.00
2023-05-19T13:40:34.677Z,43.20
2023-05-19T13:43:03.827Z,43.20
2023-05-19T13:45:31.166Z,43.60
2023-05-19T13:47:58.689Z,42.80
2023-05-19T13:50:26.419Z,43.50
2023-05-19T13:52:54.449Z,43.50
2023-05-19T13:55:23.203Z,42.30
2023-05-19T13:57:50.861Z,42.10
2023-05-19T14:00:19.360Z,41.90
2023-05-19T14:02:47.000Z,42.20
2023-05-19T14:05:15.860Z,42.20
2023-05-19T14:07:44.514Z,42.30
2023-05-19T14:10:11.987Z,41.40
2023-05-19T14:12:51.747Z,40.90
2023-05-19T14:15:26.965Z,40.50
2023-05-19T14:17:54.567Z,41.90
2023-05-19T14:20:21.988Z,41.10
2023-05-19T14:22:49.271Z,42.20
2023-05-19T14:25:16.747Z,41.70
2023-05-19T14:27:44.472Z,41.30
2023-05-19T14:30:12.948Z,41.60
2023-05-19T14:32:40.434Z,41.30
2023-05-19T14:35:08.056Z,42.10
2023-05-19T14:37:35.418Z,42.50
2023-05-19T14:40:04.380Z,42.40
2023-05-19T14:42:31.920Z,42.60
2023-05-19T14:44:59.526Z,42.90
2023-05-19T14:47:27.497Z,42.70
2023-05-19T14:49:54.976Z,42.90
2023-05-19T14:52:22.945Z,43.20
2023-05-19T14:54:50.814Z,43.70
2023-05-19T14:57:20.814Z,43.30
2023-05-19T14:59:48.236Z,44.00
2023-05-19T15:02:15.529Z,43.60
2023-05-19T15:04:43.097Z,43.90
2023-05-19T15:07:11.240Z,43.50
2023-05-19T15:09:39.860Z,44.50
2023-05-19T15:12:07.160Z,44.70
2023-05-19T15:14:34.635Z,44.60
2023-05-19T15:17:02.062Z,44.40
2023-05-19T15:19:29.882Z,45.20
2023-05-19T15:21:57.693Z,45.30
2023-05-19T15:24:25.076Z,45.20
2023-05-19T15:26:52.476Z,45.60
2023-05-19T15:29:20.242Z,44.50
2023-05-19T15:31:51.678Z,45.00
2023-05-19T15:34:20.323Z,45.60
2023-05-19T15:36:47.668Z,45.20
2023-05-19T15:39:15.027Z,45.40
2023-05-19T15:41:42.474Z,45.40
2023-05-19T15:44:09.995Z,45.80
2023-05-19T15:46:37.351Z,45.50
2023-05-19T15:49:04.679Z,46.00
2023-05-19T15:51:32.515Z,45.00
2023-05-19T15:54:00.280Z,44.80
2023-05-19T15:56:27.672Z,45.20
2023-05-19T15:58:55.165Z,43.90
2023-05-19T16:01:23.358Z,44.00
2023-05-19T16:03:51.015Z,43.70
2023-05-19T16:06:19.481Z,43.10
2023-05-19T16:08:47.416Z,43.20
2023-05-19T16:11:14.730Z,43.50
2023-05-19T16:13:42.138Z,42.80
2023-05-19T16:16:09.599Z,43.70
2023-05-19T16:18:37.168Z,43.00
2023-05-19T16:21:04.862Z,42.20
2023-05-19T16:23:34.558Z,41.80
2023-05-19T16:26:02.006Z,41.90
2023-05-19T16:28:29.787Z,42.10
2023-05-19T16:30:59.013Z,42.60
2023-05-19T16:33:27.543Z,41.80
2023-05-19T16:35:55.033Z,42.20
2023-05-19T16:38:22.421Z,41.90
2023-05-19T16:40:49.710Z,42.50
2023-05-19T16:43:17.173Z,43.00
2023-05-19T16:45:44.641Z,43.40
2023-05-19T16:48:12.649Z,42.60
2023-05-19T16:50:40.541Z,42.00
2023-05-19T16:53:08.299Z,42.50
2023-05-19T16:55:35.626Z,42.70
2023-05-19T16:58:03.211Z,42.50
2023-05-19T17:00:31.081Z,42.90
2023-05-19T17:02:58.708Z,42.50
2023-05-19T17:05:27.664Z,42.80
2023-05-19T17:07:55.489Z,42.50
2023-05-19T17:10:22.847Z,42.50
2023-05-19T17:12:50.277Z,41.80
2023-05-19T17:15:19.078Z,42.20
2023-05-19T17:17:46.426Z,42.70
2023-05-19T17:20:14.361Z,42.40
2023-05-19T17:22:41.944Z,42.40
2023-05-19T17:25:09.964Z,42.50
2023-05-19T17:27:37.410Z,42.80
2023-05-19T17:30:05.555Z,43.30
2023-05-19T17:32:38.404Z,43.20
2023-05-19T17:35:06.869Z,43.40
2023-05-19T17:37:34.477Z,43.20
2023-05-19T17:40:02.091Z,43.30
2023-05-19T17:42:31.539Z,43.10
2023-05-19T17:44:58.937Z,42.70
2023-05-19T17:47:26.372Z,42.90
2023-05-19T17:49:53.758Z,42.60
2023-05-19T17:52:21.746Z,42.70
2023-05-19T17:54:50.597Z,43.00
2023-05-19T17:57:18.705Z,42.80
2023-05-19T17:59:46.960Z,42.80
2023-05-19T18:02:15.681Z,43.20
2023-05-19T18:04:43.665Z,43.70
2023-05-19T18:07:11.954Z,43.80
2023-05-19T18:09:43.486Z,44.00
2023-05-19T18:12:11.026Z,44.00
2023-05-19T18:14:39.136Z,44.70
2023-05-19T18:17:07.568Z,43.80
2023-05-19T18:19:35.760Z,43.90
2023-05-19T18:22:03.765Z,43.80
2023-05-19T18:24:31.354Z,43.90
2023-05-19T18:26:58.960Z,44.30
2023-05-19T18:29:26.614Z,44.10
2023-05-19T18:31:54.362Z,43.80
2023-05-19T18:34:24.777Z,43.70
2023-05-19T18:36:52.626Z,43.10
2023-05-19T18:39:21.091Z,43.20
2023-05-19T18:41:49.645Z,42.80
2023-05-19T18:44:17.112Z,42.50
2023-05-19T18:46:44.683Z,42.70
2023-05-19T18:49:12.329Z,42.90
2023-05-19T18:51:39.770Z,43.10
2023-05-19T18:54:07.539Z,43.10
2023-05-19T18:56:35.401Z,43.30
2023-05-19T18:59:03.106Z,43.40
2023-05-19T19:01:33.526Z,43.50
2023-05-19T19:04:01.909Z,43.60
2023-05-19T19:06:29.405Z,43.70
2023-05-19T19:08:57.096Z,43.90
2023-05-19T19:11:24.491Z,44.00
2023-05-19T19:13:54.410Z,44.10
2023-05-19T19:16:22.569Z,44.40
2023-05-19T19:18:50.115Z,44.70
2023-05-19T19:21:22.362Z,44.70
2023-05-19T19:23:52.477Z,44.80
2023-05-19T19:26:24.009Z,44.80
2023-05-19T19:28:51.403Z,45.60
2023-05-19T19:31:19.201Z,45.10
2023-05-19T19:33:46.604Z,45.10
2023-05-19T19:36:14.731Z,45.20
2023-05-19T19:38:42.108Z,45.50
2023-05-19T19:41:09.752Z,45.70
2023-05-19T19:43:37.892Z,46.10
2023-05-19T19:46:07.279Z,46.40
2023-05-19T19:48:35.264Z,46.80
2023-05-19T19:51:02.756Z,46.20
2023-05-19T19:53:30.379Z,46.30
2023-05-19T19:56:04.962Z,46.50
2023-05-19T19:58:32.464Z,46.30
2023-05-19T20:01:02.273Z,46.50
2023-05-19T20:03:30.297Z,46.70
2023-05-19T20:05:58.176Z,46.60
2023-05-19T20:08:26.277Z,46.70
2023-05-19T20:10:54.016Z,46.80
2023-05-19T20:13:21.503Z,46.60
2023-05-19T20:15:49.543Z,46.70
2023-05-19T20:18:16.979Z,46.80
2023-05-19T20:20:44.445Z,47.00
2023-05-19T20:23:13.224Z,47.10
2023-05-19T20:25:53.712Z,47.00
2023-05-19T20:28:26.297Z,47.10
2023-05-19T20:30:54.042Z,47.10
2023-05-19T20:33:21.611Z,47.00
2023-05-19T20:35:49.010Z,47.20
2023-05-19T20:38:16.547Z,47.20
2023-05-19T20:40:43.881Z,47.40
2023-05-19T20:43:11.324Z,47.40
2023-05-19T20:45:38.699Z,47.60
2023-05-19T20:48:06.470Z,47.80
2023-05-19T20:50:34.099Z,47.80
2023-05-19T20:53:01.578Z,47.90
2023-05-19T20:55:29.246Z,47.90
2023-05-19T20:57:56.838Z,48.00
2023-05-19T21:00:24.427Z,48.10
2023-05-19T21:02:52.227Z,48.20
2023-05-19T21:05:19.647Z,48.30
2023-05-19T21:07:47.017Z,48.50
2023-05-19T21:10:14.419Z,48.50
2023-05-19T21:12:41.680Z,49.10
2023-05-19T21:15:09.907Z,48.70
2023-05-19T21:17:37.427Z,48.90
2023-05-19T21:20:06.194Z,48.90
2023-05-19T21:22:35.574Z,49.10
2023-05-19T21:25:03.520Z,49.30
2023-05-19T21:27:32.717Z,49.40
2023-05-19T21:30:00.199Z,49.50
2023-05-19T21:32:29.531Z,49.80
2023-05-19T21:34:57.427Z,49.90
2023-05-19T21:37:24.838Z,50.00
2023-05-19T21:39:52.214Z,50.10
2023-05-19T21:42:19.510Z,50.20
2023-05-19T21:44:46.953Z,50.40
2023-05-19T21:47:14.497Z,50.70
2023-05-19T21:49:41.914Z,50.80
2023-05-19T21:52:09.642Z,51.00
2023-05-19T21:54:37.133Z,51.40
2023-05-19T21:57:04.667Z,51.10
2023-05-19T21:59:32.006Z,51.20
2023-05-19T22:01:59.516Z,51.20
2023-05-19T22:04:27.038Z,51.20
2023-05-19T22:06:54.356Z,51.30
2023-05-19T22:09:21.734Z,51.50
2023-05-19T22:11:49.892Z,51.90
2023-05-19T22:14:17.790Z,51.70
2023-05-19T22:16:47.352Z,51.70
2023-05-19T22:19:15.280Z,51.90
2023-05-19T22:21:42.720Z,51.90
2023-05-19T22:24:10.231Z,52.10
2023-05-19T22:26:37.803Z,52.20
2023-05-19T22:29:05.148Z,52.20
2023-05-19T22:31:32.525Z,52.20
2023-05-19T22:33:59.875Z,52.30
2023-05-19T22:36:27.179Z,52.40
2023-05-19T22:38:54.740Z,52.40
2023-05-19T22:41:22.154Z,52.60
2023-05-19T22:43:49.473Z,52.70
2023-05-19T22:46:16.939Z,52.70
2023-05-19T22:48:44.416Z,53.00
2023-05-19T22:51:11.895Z,52.90
2023-05-19T22:53:39.254Z,53.70
2023-05-19T22:56:06.997Z,53.40
2023-05-19T22:58:34.562Z,53.30
2023-05-19T23:01:02.144Z,53.50
2023-05-19T23:03:29.450Z,53.90
2023-05-19T23:05:56.783Z,53.60
2023-05-19T23:08:24.166Z,53.70
2023-05-19T23:10:51.595Z,53.80
2023-05-19T23:13:18.891Z,53.70
2023-05-19T23:15:46.340Z,53.90
2023-05-19T23:18:15.029Z,53.70
2023-05-19T23:20:42.409Z,53.80
2023-05-19T23:23:09.972Z,53.80
2023-05-19T23:25:37.304Z,54.00
2023-05-19T23:28:04.790Z,54.10
2023-05-19T23:30:32.979Z,54.10
2023-05-19T23:33:00.474Z,54.20
2023-05-19T23:35:28.068Z,54.30
2023-05-19T23:37:55.395Z,54.30
2023-05-19T23:40:22.718Z,54.40
2023-05-19T23:42:50.385Z,54.50
2023-05-19T23:45:18.112Z,54.80
2023-05-19T23:47:45.564Z,54.80
2023-05-19T23:50:12.905Z,54.80
2023-05-19T23:52:40.262Z,54.80
2023-05-19T23:55:08.341Z,54.90
2023-05-19T23:57:36.131Z,55.10
